Hlavní strana
METAR-TAF:

METAR-TAF

Letiště :

Huntsville, Alabama, Spojené státy americké

zeměpisná šířka: 34-38-37N, zeměpisná délka: 086-47-08W, výška: 192 m

Aktuální stav počasí

Zpráva byla vytvořena před 31 minutami, v 00:53 UTC
Severní vítr 7 kt
Teplota 12°C
Vlhkost vzduchu 62%
Tlak 1016 hPa
Viditelnost: 16.1 km
Jasno

METAR: KHSV 180053Z 01007KT 10SM CLR 12/05 A2999 RMK AO2 SLP155 T01220050 $

Čas: 20:24 (01:24 UTC)

Předpověď počasí

Zpráva byla vytvořena před 2 hodinami a 4 minutami, v 23:20 UTC
Předpověď platná od 18 v 00 UTC do 18 v 24 UTC
Severovýchodní vítr 5 kt
Viditelnost: 10 km
Jasno
Od 18 v 1800 UTC
Východní vítr 8 kt
Viditelnost: 10 km
Jasno

TAF: KHSV 172320Z 1800/1824 05005KT P6SM SKC FM181800 10008KT P6SM SKC

Stav a předpovědi počasí z více než 4 000 letišť (zprávy METAR a TAF).

Červené a žluté tečky na mapě představují dostupné meteorologické stanice.

Když kurzor umístíte na tečku, zobrazí se název stanice.

Pak kliknutím zobrazíte stav a předpověď počasí.

Chcete-li změnit mapu, kliknutím na zelené tlačítko se znaménkem +mapu přiblížíte, kliknutím na zelené tlačítko se znaménkem – mapu oddálíte a kliknutím na zelené šipky přejdete na sousední mapy.


METAR-TAF: